sensor_id;sensor_type;location;lat;lon;timestamp;temperature;humidity
24992;DHT22;13014;48.356;10.884;2022-10-19T00:00:16;13.20;99.90
24992;DHT22;13014;48.356;10.884;2022-10-19T00:00:47;13.20;99.90
24992;DHT22;13014;48.356;10.884;2022-10-19T00:01:19;13.20;99.90
24992;DHT22;13014;48.356;10.884;2022-10-19T00:01:49;13.20;99.90
24992;DHT22;13014;48.356;10.884;2022-10-19T00:02:20;13.10;99.90
24992;DHT22;13014;48.356;10.884;2022-10-19T00:02:51;13.10;99.90
24992;DHT22;13014;48.356;10.884;2022-10-19T00:03:21;13.10;99.90
24992;DHT22;13014;48.356;10.884;2022-10-19T00:03:53;13.10;99.90
24992;DHT22;13014;48.356;10.884;2022-10-19T00:04:24;13.10;99.90
24992;DHT22;13014;48.356;10.884;2022-10-19T00:04:55;13.00;99.90
24992;DHT22;13014;48.356;10.884;2022-10-19T00:05:26;13.00;99.90
24992;DHT22;13014;48.356;10.884;2022-10-19T00:05:57;13.00;99.90
24992;DHT22;13014;48.356;10.884;2022-10-19T00:06:28;13.00;99.90
24992;DHT22;13014;48.356;10.884;2022-10-19T00:06:59;13.00;99.90
24992;DHT22;13014;48.356;10.884;2022-10-19T00:07:30;13.00;99.90
24992;DHT22;13014;48.356;10.884;2022-10-19T00:08:00;12.90;99.90
24992;DHT22;13014;48.356;10.884;2022-10-19T00:08:32;12.90;99.90
24992;DHT22;13014;48.356;10.884;2022-10-19T00:09:36;12.90;99.90
24992;DHT22;13014;48.356;10.884;2022-10-19T00:10:06;12.90;99.90
24992;DHT22;13014;48.356;10.884;2022-10-19T00:10:38;12.90;99.90
24992;DHT22;13014;48.356;10.884;2022-10-19T00:11:09;12.90;99.90
24992;DHT22;13014;48.356;10.884;2022-10-19T00:11:41;12.90;99.90
24992;DHT22;13014;48.356;10.884;2022-10-19T00:12:12;12.90;99.90
24992;DHT22;13014;48.356;10.884;2022-10-19T00:12:43;12.80;99.90
24992;DHT22;13014;48.356;10.884;2022-10-19T00:13:13;12.80;99.90
24992;DHT22;13014;48.356;10.884;2022-10-19T00:13:44;12.80;99.90
24992;DHT22;13014;48.356;10.884;2022-10-19T00:14:16;12.80;99.90
24992;DHT22;13014;48.356;10.884;2022-10-19T00:14:47;12.80;99.90
24992;DHT22;13014;48.356;10.884;2022-10-19T00:15:17;12.80;99.90
24992;DHT22;13014;48.356;10.884;2022-10-19T00:15:48;12.80;99.90
24992;DHT22;13014;48.356;10.884;2022-10-19T00:16:19;12.70;99.90
24992;DHT22;13014;48.356;10.884;2022-10-19T00:16:50;12.70;99.90
24992;DHT22;13014;48.356;10.884;2022-10-19T00:17:21;12.70;99.90
24992;DHT22;13014;48.356;10.884;2022-10-19T00:17:52;12.70;99.90
24992;DHT22;13014;48.356;10.884;2022-10-19T00:18:22;12.70;99.90
24992;DHT22;13014;48.356;10.884;2022-10-19T00:18:57;12.70;99.90
24992;DHT22;13014;48.356;10.884;2022-10-19T00:19:28;12.70;99.90
24992;DHT22;13014;48.356;10.884;2022-10-19T00:19:58;12.70;99.90
24992;DHT22;13014;48.356;10.884;2022-10-19T00:20:29;12.70;99.90
24992;DHT22;13014;48.356;10.884;2022-10-19T00:21:04;12.60;99.90
24992;DHT22;13014;48.356;10.884;2022-10-19T00:21:34;12.60;99.90
24992;DHT22;13014;48.356;10.884;2022-10-19T00:22:05;12.60;99.90
24992;DHT22;13014;48.356;10.884;2022-10-19T00:22:35;12.60;99.90
24992;DHT22;13014;48.356;10.884;2022-10-19T00:23:06;12.60;99.90
24992;DHT22;13014;48.356;10.884;2022-10-19T00:23:37;12.60;99.90
24992;DHT22;13014;48.356;10.884;2022-10-19T00:24:07;12.50;99.90
24992;DHT22;13014;48.356;10.884;2022-10-19T00:24:38;12.50;99.90
24992;DHT22;13014;48.356;10.884;2022-10-19T00:25:09;12.50;99.90
24992;DHT22;13014;48.356;10.884;2022-10-19T00:25:39;12.50;99.90
24992;DHT22;13014;48.356;10.884;2022-10-19T00:26:10;12.50;99.90
24992;DHT22;13014;48.356;10.884;2022-10-19T00:26:41;12.50;99.90
24992;DHT22;13014;48.356;10.884;2022-10-19T00:27:12;12.50;99.90
24992;DHT22;13014;48.356;10.884;2022-10-19T00:27:42;12.50;99.90
24992;DHT22;13014;48.356;10.884;2022-10-19T00:28:13;12.50;99.90
24992;DHT22;13014;48.356;10.884;2022-10-19T00:28:44;12.50;99.90
24992;DHT22;13014;48.356;10.884;2022-10-19T00:29:15;12.50;99.90
24992;DHT22;13014;48.356;10.884;2022-10-19T00:29:45;12.50;99.90
24992;DHT22;13014;48.356;10.884;2022-10-19T00:30:16;12.40;99.90
24992;DHT22;13014;48.356;10.884;2022-10-19T00:30:46;12.40;99.90
24992;DHT22;13014;48.356;10.884;2022-10-19T00:31:17;12.40;99.90
24992;DHT22;13014;48.356;10.884;2022-10-19T00:31:50;12.40;99.90
24992;DHT22;13014;48.356;10.884;2022-10-19T00:32:21;12.30;99.90
24992;DHT22;13014;48.356;10.884;2022-10-19T00:32:52;12.30;99.90
24992;DHT22;13014;48.356;10.884;2022-10-19T00:33:22;12.30;99.90
24992;DHT22;13014;48.356;10.884;2022-10-19T00:33:54;12.30;99.90
24992;DHT22;13014;48.356;10.884;2022-10-19T00:34:25;12.30;99.90
24992;DHT22;13014;48.356;10.884;2022-10-19T00:34:55;12.30;99.90
24992;DHT22;13014;48.356;10.884;2022-10-19T00:35:26;12.30;99.90
24992;DHT22;13014;48.356;10.884;2022-10-19T00:35:56;12.30;99.90
24992;DHT22;13014;48.356;10.884;2022-10-19T00:36:28;12.30;99.90
24992;DHT22;13014;48.356;10.884;2022-10-19T00:36:59;12.30;99.90
24992;DHT22;13014;48.356;10.884;2022-10-19T00:37:30;12.30;99.90
24992;DHT22;13014;48.356;10.884;2022-10-19T00:38:00;12.30;99.90
24992;DHT22;13014;48.356;10.884;2022-10-19T00:38:31;12.30;99.90
24992;DHT22;13014;48.356;10.884;2022-10-19T00:39:03;12.30;99.90
24992;DHT22;13014;48.356;10.884;2022-10-19T00:39:33;12.30;99.90
24992;DHT22;13014;48.356;10.884;2022-10-19T00:40:04;12.30;99.90
24992;DHT22;13014;48.356;10.884;2022-10-19T00:40:37;12.30;99.90
24992;DHT22;13014;48.356;10.884;2022-10-19T00:41:08;12.30;99.90
24992;DHT22;13014;48.356;10.884;2022-10-19T00:41:39;12.20;99.90
24992;DHT22;13014;48.356;10.884;2022-10-19T00:42:10;12.30;99.90
24992;DHT22;13014;48.356;10.884;2022-10-19T00:42:41;12.20;99.90
24992;DHT22;13014;48.356;10.884;2022-10-19T00:43:16;12.20;99.90
24992;DHT22;13014;48.356;10.884;2022-10-19T00:44:57;12.20;99.90
24992;DHT22;13014;48.356;10.884;2022-10-19T00:45:28;12.20;99.90
24992;DHT22;13014;48.356;10.884;2022-10-19T00:45:59;12.20;99.90
24992;DHT22;13014;48.356;10.884;2022-10-19T00:46:31;12.20;99.90
24992;DHT22;13014;48.356;10.884;2022-10-19T00:47:03;12.20;99.90
24992;DHT22;13014;48.356;10.884;2022-10-19T00:47:34;12.10;99.90
24992;DHT22;13014;48.356;10.884;2022-10-19T00:48:05;12.10;99.90
24992;DHT22;13014;48.356;10.884;2022-10-19T00:48:35;12.10;99.90
24992;DHT22;13014;48.356;10.884;2022-10-19T00:49:38;12.10;99.90
24992;DHT22;13014;48.356;10.884;2022-10-19T00:50:09;12.20;99.90
24992;DHT22;13014;48.356;10.884;2022-10-19T00:50:40;12.20;99.90
24992;DHT22;13014;48.356;10.884;2022-10-19T00:51:11;12.20;99.90
24992;DHT22;13014;48.356;10.884;2022-10-19T00:51:47;12.20;99.90
24992;DHT22;13014;48.356;10.884;2022-10-19T00:52:20;12.20;99.90
24992;DHT22;13014;48.356;10.884;2022-10-19T00:52:51;12.20;99.90
24992;DHT22;13014;48.356;10.884;2022-10-19T00:53:22;12.20;99.90
24992;DHT22;13014;48.356;10.884;2022-10-19T00:53:55;12.20;99.90
24992;DHT22;13014;48.356;10.884;2022-10-19T00:54:26;12.20;99.90
24992;DHT22;13014;48.356;10.884;2022-10-19T00:54:57;12.20;99.90
24992;DHT22;13014;48.356;10.884;2022-10-19T00:55:28;12.20;99.90
24992;DHT22;13014;48.356;10.884;2022-10-19T00:55:59;12.20;99.90
24992;DHT22;13014;48.356;10.884;2022-10-19T00:56:32;12.20;99.90
24992;DHT22;13014;48.356;10.884;2022-10-19T00:57:03;12.20;99.90
24992;DHT22;13014;48.356;10.884;2022-10-19T00:57:34;12.20;99.90
24992;DHT22;13014;48.356;10.884;2022-10-19T00:58:11;12.20;99.90
24992;DHT22;13014;48.356;10.884;2022-10-19T00:58:42;12.20;99.90
24992;DHT22;13014;48.356;10.884;2022-10-19T00:59:14;12.20;99.90
24992;DHT22;13014;48.356;10.884;2022-10-19T00:59:45;12.20;99.90
24992;DHT22;13014;48.356;10.884;2022-10-19T01:00:16;12.20;99.90
24992;DHT22;13014;48.356;10.884;2022-10-19T01:00:50;12.20;99.90
24992;DHT22;13014;48.356;10.884;2022-10-19T01:01:21;12.20;99.90
24992;DHT22;13014;48.356;10.884;2022-10-19T01:01:57;12.20;99.90
24992;DHT22;13014;48.356;10.884;2022-10-19T01:02:28;12.20;99.90
24992;DHT22;13014;48.356;10.884;2022-10-19T01:02:58;12.20;99.90
24992;DHT22;13014;48.356;10.884;2022-10-19T01:03:29;12.20;99.90
24992;DHT22;13014;48.356;10.884;2022-10-19T01:04:00;12.20;99.90
24992;DHT22;13014;48.356;10.884;2022-10-19T01:04:35;12.30;99.90
24992;DHT22;13014;48.356;10.884;2022-10-19T01:05:07;12.20;99.90
24992;DHT22;13014;48.356;10.884;2022-10-19T01:05:37;12.30;99.90
24992;DHT22;13014;48.356;10.884;2022-10-19T01:06:08;12.30;99.90
24992;DHT22;13014;48.356;10.884;2022-10-19T01:06:39;12.30;99.90
24992;DHT22;13014;48.356;10.884;2022-10-19T01:07:10;12.30;99.90
24992;DHT22;13014;48.356;10.884;2022-10-19T01:07:41;12.30;99.90
24992;DHT22;13014;48.356;10.884;2022-10-19T01:08:12;12.30;99.90
24992;DHT22;13014;48.356;10.884;2022-10-19T01:08:43;12.30;99.90
24992;DHT22;13014;48.356;10.884;2022-10-19T01:09:13;12.30;99.90
24992;DHT22;13014;48.356;10.884;2022-10-19T01:09:44;12.30;99.90
24992;DHT22;13014;48.356;10.884;2022-10-19T01:10:14;12.30;99.90
24992;DHT22;13014;48.356;10.884;2022-10-19T01:10:51;12.30;99.90
24992;DHT22;13014;48.356;10.884;2022-10-19T01:11:35;12.30;99.90
24992;DHT22;13014;48.356;10.884;2022-10-19T01:12:29;12.30;99.90
24992;DHT22;13014;48.356;10.884;2022-10-19T01:16:17;12.30;99.90
24992;DHT22;13014;48.356;10.884;2022-10-19T01:16:59;12.30;99.90
24992;DHT22;13014;48.356;10.884;2022-10-19T01:18:10;12.20;99.90
24992;DHT22;13014;48.356;10.884;2022-10-19T01:21:18;12.20;99.90
24992;DHT22;13014;48.356;10.884;2022-10-19T01:21:54;12.20;99.90
24992;DHT22;13014;48.356;10.884;2022-10-19T01:22:40;12.20;99.90
24992;DHT22;13014;48.356;10.884;2022-10-19T01:25:08;12.20;99.90
24992;DHT22;13014;48.356;10.884;2022-10-19T01:25:54;12.30;99.90
24992;DHT22;13014;48.356;10.884;2022-10-19T01:26:35;12.30;99.90
24992;DHT22;13014;48.356;10.884;2022-10-19T01:27:30;12.30;99.90
24992;DHT22;13014;48.356;10.884;2022-10-19T01:28:14;12.40;99.90
24992;DHT22;13014;48.356;10.884;2022-10-19T01:30:25;12.50;99.90
24992;DHT22;13014;48.356;10.884;2022-10-19T01:30:59;12.50;99.90
24992;DHT22;13014;48.356;10.884;2022-10-19T01:32:05;12.60;99.90
24992;DHT22;13014;48.356;10.884;2022-10-19T01:32:41;12.60;99.90
24992;DHT22;13014;48.356;10.884;2022-10-19T01:33:29;12.60;99.90
24992;DHT22;13014;48.356;10.884;2022-10-19T01:34:06;12.60;99.90
24992;DHT22;13014;48.356;10.884;2022-10-19T01:36:11;12.70;99.90
24992;DHT22;13014;48.356;10.884;2022-10-19T01:37:06;12.70;99.90
24992;DHT22;13014;48.356;10.884;2022-10-19T01:38:21;12.80;99.90
24992;DHT22;13014;48.356;10.884;2022-10-19T01:39:03;12.80;99.90
24992;DHT22;13014;48.356;10.884;2022-10-19T01:39:40;12.80;99.90
24992;DHT22;13014;48.356;10.884;2022-10-19T01:41:08;12.90;99.90
24992;DHT22;13014;48.356;10.884;2022-10-19T01:41:49;12.90;99.90
24992;DHT22;13014;48.356;10.884;2022-10-19T01:43:11;12.90;99.90
24992;DHT22;13014;48.356;10.884;2022-10-19T01:43:56;12.90;99.90
24992;DHT22;13014;48.356;10.884;2022-10-19T01:44:30;12.90;99.90
24992;DHT22;13014;48.356;10.884;2022-10-19T01:45:08;12.90;99.90
24992;DHT22;13014;48.356;10.884;2022-10-19T01:45:41;12.90;99.90
24992;DHT22;13014;48.356;10.884;2022-10-19T01:46:20;13.00;99.90
24992;DHT22;13014;48.356;10.884;2022-10-19T01:46:57;12.90;99.90
24992;DHT22;13014;48.356;10.884;2022-10-19T01:47:30;13.00;99.90
24992;DHT22;13014;48.356;10.884;2022-10-19T01:48:19;13.00;99.90
24992;DHT22;13014;48.356;10.884;2022-10-19T01:48:55;13.00;99.90
24992;DHT22;13014;48.356;10.884;2022-10-19T01:49:28;13.00;99.90
24992;DHT22;13014;48.356;10.884;2022-10-19T01:50:09;13.00;99.90
24992;DHT22;13014;48.356;10.884;2022-10-19T01:51:00;13.00;99.90
24992;DHT22;13014;48.356;10.884;2022-10-19T01:51:33;13.00;99.90
24992;DHT22;13014;48.356;10.884;2022-10-19T01:52:05;13.00;99.90
24992;DHT22;13014;48.356;10.884;2022-10-19T01:52:37;13.00;99.90
24992;DHT22;13014;48.356;10.884;2022-10-19T01:53:09;13.00;99.90
24992;DHT22;13014;48.356;10.884;2022-10-19T01:53:42;13.00;99.90
24992;DHT22;13014;48.356;10.884;2022-10-19T01:54:14;13.10;99.90
24992;DHT22;13014;48.356;10.884;2022-10-19T01:54:46;13.00;99.90
24992;DHT22;13014;48.356;10.884;2022-10-19T01:55:18;13.10;99.90
24992;DHT22;13014;48.356;10.884;2022-10-19T01:55:50;13.00;99.90
24992;DHT22;13014;48.356;10.884;2022-10-19T01:56:24;13.10;99.90
24992;DHT22;13014;48.356;10.884;2022-10-19T01:56:55;13.10;99.90
24992;DHT22;13014;48.356;10.884;2022-10-19T01:57:29;13.10;99.90
24992;DHT22;13014;48.356;10.884;2022-10-19T01:58:03;13.10;99.90
24992;DHT22;13014;48.356;10.884;2022-10-19T01:58:35;13.10;99.90
24992;DHT22;13014;48.356;10.884;2022-10-19T01:59:07;13.10;99.90
24992;DHT22;13014;48.356;10.884;2022-10-19T01:59:39;13.10;99.90
24992;DHT22;13014;48.356;10.884;2022-10-19T02:00:10;13.10;99.90
24992;DHT22;13014;48.356;10.884;2022-10-19T02:00:42;13.10;99.90
24992;DHT22;13014;48.356;10.884;2022-10-19T02:01:15;13.10;99.90
24992;DHT22;13014;48.356;10.884;2022-10-19T02:01:46;13.10;99.90
24992;DHT22;13014;48.356;10.884;2022-10-19T02:02:18;13.10;99.90
24992;DHT22;13014;48.356;10.884;2022-10-19T02:02:49;13.10;99.90
24992;DHT22;13014;48.356;10.884;2022-10-19T02:03:20;13.10;99.90
24992;DHT22;13014;48.356;10.884;2022-10-19T02:03:52;13.10;99.90
24992;DHT22;13014;48.356;10.884;2022-10-19T02:04:23;13.10;99.90
24992;DHT22;13014;48.356;10.884;2022-10-19T02:04:54;13.10;99.90
24992;DHT22;13014;48.356;10.884;2022-10-19T02:05:27;13.10;99.90
24992;DHT22;13014;48.356;10.884;2022-10-19T02:06:01;13.10;99.90
24992;DHT22;13014;48.356;10.884;2022-10-19T02:06:32;13.10;99.90
24992;DHT22;13014;48.356;10.884;2022-10-19T02:07:02;13.10;99.90
24992;DHT22;13014;48.356;10.884;2022-10-19T02:07:33;13.20;99.90
24992;DHT22;13014;48.356;10.884;2022-10-19T02:08:05;13.20;99.90
24992;DHT22;13014;48.356;10.884;2022-10-19T02:08:39;13.20;99.90
24992;DHT22;13014;48.356;10.884;2022-10-19T02:09:12;13.20;99.90
24992;DHT22;13014;48.356;10.884;2022-10-19T02:09:47;13.20;99.90
24992;DHT22;13014;48.356;10.884;2022-10-19T02:10:18;13.20;99.90
24992;DHT22;13014;48.356;10.884;2022-10-19T02:10:49;13.20;99.90
24992;DHT22;13014;48.356;10.884;2022-10-19T02:11:21;13.30;99.90
24992;DHT22;13014;48.356;10.884;2022-10-19T02:11:55;13.20;99.90
24992;DHT22;13014;48.356;10.884;2022-10-19T02:12:27;13.30;99.90
24992;DHT22;13014;48.356;10.884;2022-10-19T02:12:58;13.30;99.90
24992;DHT22;13014;48.356;10.884;2022-10-19T02:13:29;13.30;99.90
24992;DHT22;13014;48.356;10.884;2022-10-19T02:14:03;13.30;99.90
24992;DHT22;13014;48.356;10.884;2022-10-19T02:14:38;13.30;99.90
24992;DHT22;13014;48.356;10.884;2022-10-19T02:15:10;13.30;99.90
24992;DHT22;13014;48.356;10.884;2022-10-19T02:15:43;13.30;99.90
24992;DHT22;13014;48.356;10.884;2022-10-19T02:16:17;13.30;99.90
24992;DHT22;13014;48.356;10.884;2022-10-19T02:16:54;13.30;99.90
24992;DHT22;13014;48.356;10.884;2022-10-19T02:17:31;13.30;99.90
24992;DHT22;13014;48.356;10.884;2022-10-19T02:18:03;13.30;99.90
24992;DHT22;13014;48.356;10.884;2022-10-19T02:18:37;13.30;99.90
24992;DHT22;13014;48.356;10.884;2022-10-19T02:19:09;13.30;99.90
24992;DHT22;13014;48.356;10.884;2022-10-19T02:19:41;13.30;99.90
24992;DHT22;13014;48.356;10.884;2022-10-19T02:20:12;13.40;99.90
24992;DHT22;13014;48.356;10.884;2022-10-19T02:20:43;13.40;99.90
24992;DHT22;13014;48.356;10.884;2022-10-19T02:21:13;13.40;99.90
24992;DHT22;13014;48.356;10.884;2022-10-19T02:21:44;13.40;99.90
24992;DHT22;13014;48.356;10.884;2022-10-19T02:22:15;13.40;99.90
24992;DHT22;13014;48.356;10.884;2022-10-19T02:22:45;13.40;99.90
24992;DHT22;13014;48.356;10.884;2022-10-19T02:23:16;13.40;99.90
24992;DHT22;13014;48.356;10.884;2022-10-19T02:23:48;13.40;99.90
24992;DHT22;13014;48.356;10.884;2022-10-19T02:24:19;13.40;99.90
24992;DHT22;13014;48.356;10.884;2022-10-19T02:24:49;13.40;99.90
24992;DHT22;13014;48.356;10.884;2022-10-19T02:25:20;13.40;99.90
24992;DHT22;13014;48.356;10.884;2022-10-19T02:25:51;13.50;99.90
24992;DHT22;13014;48.356;10.884;2022-10-19T02:26:22;13.50;99.90
24992;DHT22;13014;48.356;10.884;2022-10-19T02:26:52;13.50;99.90
24992;DHT22;13014;48.356;10.884;2022-10-19T02:27:23;13.50;99.90
24992;DHT22;13014;48.356;10.884;2022-10-19T02:27:54;13.50;99.90
24992;DHT22;13014;48.356;10.884;2022-10-19T02:28:24;13.50;99.90
24992;DHT22;13014;48.356;10.884;2022-10-19T02:28:56;13.50;99.90
24992;DHT22;13014;48.356;10.884;2022-10-19T02:29:27;13.50;99.90
24992;DHT22;13014;48.356;10.884;2022-10-19T02:29:57;13.50;99.90
24992;DHT22;13014;48.356;10.884;2022-10-19T02:30:28;13.50;99.90
24992;DHT22;13014;48.356;10.884;2022-10-19T02:30:59;13.50;99.90
24992;DHT22;13014;48.356;10.884;2022-10-19T02:31:29;13.50;99.90
24992;DHT22;13014;48.356;10.884;2022-10-19T02:32:00;13.50;99.90
24992;DHT22;13014;48.356;10.884;2022-10-19T02:32:31;13.50;99.90
24992;DHT22;13014;48.356;10.884;2022-10-19T02:33:01;13.50;99.90
24992;DHT22;13014;48.356;10.884;2022-10-19T02:33:32;13.50;99.90
24992;DHT22;13014;48.356;10.884;2022-10-19T02:34:03;13.50;99.90
24992;DHT22;13014;48.356;10.884;2022-10-19T02:34:34;13.60;99.90
24992;DHT22;13014;48.356;10.884;2022-10-19T02:35:05;13.60;99.90
24992;DHT22;13014;48.356;10.884;2022-10-19T02:35:36;13.60;99.90
24992;DHT22;13014;48.356;10.884;2022-10-19T02:36:07;13.60;99.90
24992;DHT22;13014;48.356;10.884;2022-10-19T02:36:37;13.60;99.90
24992;DHT22;13014;48.356;10.884;2022-10-19T02:37:08;13.60;99.90
24992;DHT22;13014;48.356;10.884;2022-10-19T02:37:39;13.60;99.90
24992;DHT22;13014;48.356;10.884;2022-10-19T02:38:10;13.60;99.90
24992;DHT22;13014;48.356;10.884;2022-10-19T02:38:43;13.60;99.90
24992;DHT22;13014;48.356;10.884;2022-10-19T02:39:14;13.60;99.90
24992;DHT22;13014;48.356;10.884;2022-10-19T02:39:44;13.60;99.90
24992;DHT22;13014;48.356;10.884;2022-10-19T02:40:15;13.60;99.90
24992;DHT22;13014;48.356;10.884;2022-10-19T02:41:08;13.60;99.90
24992;DHT22;13014;48.356;10.884;2022-10-19T02:42:19;13.60;99.90
24992;DHT22;13014;48.356;10.884;2022-10-19T02:42:44;13.70;99.90
24992;DHT22;13014;48.356;10.884;2022-10-19T02:43:17;13.70;99.90
24992;DHT22;13014;48.356;10.884;2022-10-19T02:43:53;13.70;99.90
24992;DHT22;13014;48.356;10.884;2022-10-19T02:44:32;13.70;99.90
24992;DHT22;13014;48.356;10.884;2022-10-19T02:45:39;13.70;99.90
24992;DHT22;13014;48.356;10.884;2022-10-19T02:46:17;13.70;99.90
24992;DHT22;13014;48.356;10.884;2022-10-19T02:46:51;13.70;99.90
24992;DHT22;13014;48.356;10.884;2022-10-19T02:47:54;13.70;99.90
24992;DHT22;13014;48.356;10.884;2022-10-19T02:48:26;13.70;99.90
24992;DHT22;13014;48.356;10.884;2022-10-19T02:48:58;13.70;99.90
24992;DHT22;13014;48.356;10.884;2022-10-19T02:49:32;13.70;99.90
24992;DHT22;13014;48.356;10.884;2022-10-19T02:50:04;13.70;99.90
24992;DHT22;13014;48.356;10.884;2022-10-19T02:50:35;13.70;99.90
24992;DHT22;13014;48.356;10.884;2022-10-19T02:51:05;13.70;99.90
24992;DHT22;13014;48.356;10.884;2022-10-19T02:51:37;13.80;99.90
24992;DHT22;13014;48.356;10.884;2022-10-19T02:52:09;13.80;99.90
24992;DHT22;13014;48.356;10.884;2022-10-19T02:52:40;13.80;99.90
24992;DHT22;13014;48.356;10.884;2022-10-19T02:53:10;13.80;99.90
24992;DHT22;13014;48.356;10.884;2022-10-19T02:53:41;13.80;99.90
24992;DHT22;13014;48.356;10.884;2022-10-19T02:54:11;13.80;99.90
24992;DHT22;13014;48.356;10.884;2022-10-19T02:54:42;13.80;99.90
24992;DHT22;13014;48.356;10.884;2022-10-19T02:55:13;13.80;99.90
24992;DHT22;13014;48.356;10.884;2022-10-19T02:55:44;13.80;99.90
24992;DHT22;13014;48.356;10.884;2022-10-19T02:56:16;13.80;99.90
24992;DHT22;13014;48.356;10.884;2022-10-19T02:56:46;13.80;99.90
24992;DHT22;13014;48.356;10.884;2022-10-19T02:57:21;13.90;99.90
24992;DHT22;13014;48.356;10.884;2022-10-19T02:57:52;13.80;99.90
24992;DHT22;13014;48.356;10.884;2022-10-19T02:58:24;13.80;99.90
24992;DHT22;13014;48.356;10.884;2022-10-19T02:58:54;13.80;99.90
24992;DHT22;13014;48.356;10.884;2022-10-19T02:59:25;13.80;99.90
24992;DHT22;13014;48.356;10.884;2022-10-19T02:59:55;13.80;99.90
24992;DHT22;13014;48.356;10.884;2022-10-19T03:00:26;13.80;99.90
24992;DHT22;13014;48.356;10.884;2022-10-19T03:00:56;13.80;99.90
24992;DHT22;13014;48.356;10.884;2022-10-19T03:01:27;13.80;99.90
24992;DHT22;13014;48.356;10.884;2022-10-19T03:01:57;13.90;99.90
24992;DHT22;13014;48.356;10.884;2022-10-19T03:02:28;13.90;99.90
24992;DHT22;13014;48.356;10.884;2022-10-19T03:02:59;13.90;99.90
24992;DHT22;13014;48.356;10.884;2022-10-19T03:03:29;13.90;99.90
24992;DHT22;13014;48.356;10.884;2022-10-19T03:04:00;13.80;99.90
24992;DHT22;13014;48.356;10.884;2022-10-19T03:04:30;13.90;99.90
24992;DHT22;13014;48.356;10.884;2022-10-19T03:05:01;13.90;99.90
24992;DHT22;13014;48.356;10.884;2022-10-19T03:05:31;13.90;99.90
24992;DHT22;13014;48.356;10.884;2022-10-19T03:06:02;13.90;99.90
24992;DHT22;13014;48.356;10.884;2022-10-19T03:06:32;13.90;99.90
24992;DHT22;13014;48.356;10.884;2022-10-19T03:07:03;13.90;99.90
24992;DHT22;13014;48.356;10.884;2022-10-19T03:07:34;13.90;99.90
24992;DHT22;13014;48.356;10.884;2022-10-19T03:08:04;13.90;99.90
24992;DHT22;13014;48.356;10.884;2022-10-19T03:08:35;13.90;99.90
24992;DHT22;13014;48.356;10.884;2022-10-19T03:09:06;13.90;99.90
24992;DHT22;13014;48.356;10.884;2022-10-19T03:09:36;14.00;99.90
24992;DHT22;13014;48.356;10.884;2022-10-19T03:10:07;13.90;99.90
24992;DHT22;13014;48.356;10.884;2022-10-19T03:10:37;13.90;99.90
24992;DHT22;13014;48.356;10.884;2022-10-19T03:11:08;13.90;99.90
24992;DHT22;13014;48.356;10.884;2022-10-19T03:11:39;13.90;99.90
24992;DHT22;13014;48.356;10.884;2022-10-19T03:12:10;13.90;99.90
24992;DHT22;13014;48.356;10.884;2022-10-19T03:12:40;13.90;99.90
24992;DHT22;13014;48.356;10.884;2022-10-19T03:13:11;13.90;99.90
24992;DHT22;13014;48.356;10.884;2022-10-19T03:13:41;13.90;99.90
24992;DHT22;13014;48.356;10.884;2022-10-19T03:14:12;14.00;99.90
24992;DHT22;13014;48.356;10.884;2022-10-19T03:14:43;13.90;99.90
24992;DHT22;13014;48.356;10.884;2022-10-19T03:15:14;13.90;99.90
24992;DHT22;13014;48.356;10.884;2022-10-19T03:15:45;14.00;99.90
24992;DHT22;13014;48.356;10.884;2022-10-19T03:16:16;14.00;99.90
24992;DHT22;13014;48.356;10.884;2022-10-19T03:16:47;14.00;99.90
24992;DHT22;13014;48.356;10.884;2022-10-19T03:17:17;14.00;99.90
24992;DHT22;13014;48.356;10.884;2022-10-19T03:17:51;14.00;99.90
24992;DHT22;13014;48.356;10.884;2022-10-19T03:18:21;14.00;99.90
24992;DHT22;13014;48.356;10.884;2022-10-19T03:18:52;14.00;99.90
24992;DHT22;13014;48.356;10.884;2022-10-19T03:19:23;14.00;99.90
24992;DHT22;13014;48.356;10.884;2022-10-19T03:19:54;14.00;99.90
24992;DHT22;13014;48.356;10.884;2022-10-19T03:20:24;14.00;99.90
24992;DHT22;13014;48.356;10.884;2022-10-19T03:21:02;14.00;99.90
24992;DHT22;13014;48.356;10.884;2022-10-19T03:21:33;14.00;99.90
24992;DHT22;13014;48.356;10.884;2022-10-19T03:22:03;14.00;99.90
24992;DHT22;13014;48.356;10.884;2022-10-19T03:22:34;14.00;99.90
24992;DHT22;13014;48.356;10.884;2022-10-19T03:23:05;14.00;99.90
24992;DHT22;13014;48.356;10.884;2022-10-19T03:23:36;14.00;99.90
24992;DHT22;13014;48.356;10.884;2022-10-19T03:24:06;14.00;99.90
24992;DHT22;13014;48.356;10.884;2022-10-19T03:24:37;14.00;99.90
24992;DHT22;13014;48.356;10.884;2022-10-19T03:25:08;14.00;99.90
24992;DHT22;13014;48.356;10.884;2022-10-19T03:25:38;14.00;99.90
24992;DHT22;13014;48.356;10.884;2022-10-19T03:26:11;14.00;99.90
24992;DHT22;13014;48.356;10.884;2022-10-19T03:26:42;14.00;99.90
24992;DHT22;13014;48.356;10.884;2022-10-19T03:27:13;14.00;99.90
24992;DHT22;13014;48.356;10.884;2022-10-19T03:27:43;14.00;99.90
24992;DHT22;13014;48.356;10.884;2022-10-19T03:28:14;14.00;99.90
24992;DHT22;13014;48.356;10.884;2022-10-19T03:28:44;14.00;99.90
24992;DHT22;13014;48.356;10.884;2022-10-19T03:29:15;14.00;99.90
24992;DHT22;13014;48.356;10.884;2022-10-19T03:29:45;14.00;99.90
24992;DHT22;13014;48.356;10.884;2022-10-19T03:30:16;14.10;99.90
24992;DHT22;13014;48.356;10.884;2022-10-19T03:30:47;14.10;99.90
24992;DHT22;13014;48.356;10.884;2022-10-19T03:31:17;14.10;99.90
24992;DHT22;13014;48.356;10.884;2022-10-19T03:31:48;14.10;99.90
24992;DHT22;13014;48.356;10.884;2022-10-19T03:32:19;14.10;99.90
24992;DHT22;13014;48.356;10.884;2022-10-19T03:32:49;14.10;99.90
24992;DHT22;13014;48.356;10.884;2022-10-19T03:33:20;14.10;99.90
24992;DHT22;13014;48.356;10.884;2022-10-19T03:33:50;14.10;99.90
24992;DHT22;13014;48.356;10.884;2022-10-19T03:34:21;14.10;99.90
24992;DHT22;13014;48.356;10.884;2022-10-19T03:34:51;14.10;99.90
24992;DHT22;13014;48.356;10.884;2022-10-19T03:35:22;14.10;99.90
24992;DHT22;13014;48.356;10.884;2022-10-19T03:36:14;14.10;99.90
24992;DHT22;13014;48.356;10.884;2022-10-19T03:36:46;14.10;99.90
24992;DHT22;13014;48.356;10.884;2022-10-19T03:37:16;14.10;99.90
24992;DHT22;13014;48.356;10.884;2022-10-19T03:37:47;14.10;99.90
24992;DHT22;13014;48.356;10.884;2022-10-19T03:38:17;14.10;99.90
24992;DHT22;13014;48.356;10.884;2022-10-19T03:38:49;14.10;99.90
24992;DHT22;13014;48.356;10.884;2022-10-19T03:39:19;14.10;99.90